Terminal Aerodrome Forecast
Issued by NWS

Home | Current Version | Previous Version | Text Only | Print | Product List | Glossary On
Versions: 1 2 3 4 5 6 7 8 9 10 11 12 13 14 15 16 17 18 19 20 21 22 23 24 25 26 27 28 29 30 31 32 33 34 35 36 37 38 39 40 41 42 43 44 45 46 47
000
FTUS45 KBOU 011128
TAFAPA
TAF
KAPA 011128Z 0112/0212 23005KT P6SM SCT120 BKN220
     FM011500 VRB05KT P6SM SCT120 BKN220
     FM011700 02005KT P6SM FEW080 SCT120 BKN220
     FM012000 07008KT P6SM SCT080 BKN140
      TEMPO 0121/0201 VRB20G32KT -TSRA BKN080CB
     FM020200 16008KT P6SM SCT080 BKN140=

USA.gov is the U.S. government's official web portal to all federal, state and local government web resources and services.